Home   Weather   USA   Astoria   Past weeks
Flag for USA

Past Weather in Astoria, Oregon, USA — Yesterday and Last 2 Weeks

Currently: 67 °F. Sunny. (Weather station: Astoria Regional Airport, USA). See more current weather

Past Weather in Astoria — Graph

°F

Astoria Temperature Yesterday

Maximum temperature yesterday: 65 °F (at 3:22 pm)
Minimum temperature yesterday: 54 °F (at 5:19 am)
Average temperature yesterday: 59 °F

High & Low Weather Summary for the Past Weeks

 TemperatureHumidityPressure
High71 °F (Jun 12, 1:55 pm)97% (Jun 12, 1:38 am)30.36 "Hg (Jun 12, 1:38 am)
Low47 °F (Jun 12, 1:38 am)49% (Jun 12, 12:55 pm)29.78 "Hg (Jun 12, 6:55 pm)
Average59 °F82%30.03 "Hg
* Reported Jun 9 1:55 pm — Jun 24 1:55 pm, Astoria. Weather by CustomWeather, © 2021

Note: Actual official high and low records may vary slightly from our data, if they occured in-between our weather recording intervals... More about our weather records

Astoria Weather History for the Previous 24 Hours

Scroll right to see more
 ConditionsComfort  
Time TempWeatherWind HumidityBarometerVisibility
1:55 pm
Thu, Jun 24
67 °FSunny.8 mph68%30.08 "Hg10 mi
12:55 pm66 °FSunny.9 mph68%30.08 "Hg10 mi
11:55 am64 °FSunny.9 mph70%30.08 "Hg10 mi
10:55 am63 °FSunny.8 mph73%30.08 "Hg10 mi
10:26 am61 °FScattered clouds.5 mph75%30.08 "Hg10 mi
10:03 am61 °FOvercast.No wind75%30.08 "Hg10 mi
8:55 am59 °FOvercast.No wind78%30.08 "Hg10 mi
7:55 am57 °FOvercast.5 mph81%30.07 "Hg10 mi
6:55 am56 °FOvercast.3 mph84%30.07 "Hg10 mi
5:55 am56 °FOvercast.6 mph84%30.06 "Hg10 mi
4:55 am56 °FOvercast.5 mph84%30.06 "Hg10 mi
3:55 am56 °FOvercast.5 mph84%30.05 "Hg10 mi
2:55 am56 °FOvercast.3 mph81%30.05 "Hg10 mi
1:55 am56 °FOvercast.No wind81%30.05 "Hg10 mi
1:37 am56 °FOvercast.No wind81%30.05 "Hg10 mi
12:55 am56 °FOvercast.6 mph81%30.05 "Hg10 mi
11:55 pm
Wed, Jun 23
57 °FOvercast.No wind81%30.05 "Hg10 mi
10:55 pm57 °FOvercast.5 mph78%30.03 "Hg10 mi
9:55 pm57 °FOvercast.5 mph78%30.03 "Hg10 mi
9:10 pm57 °FPassing clouds.6 mph78%30.03 "Hg10 mi
8:55 pm57 °FPassing clouds.8 mph78%30.02 "Hg10 mi
8:22 pm59 °FPassing clouds.7 mph75%30.01 "Hg10 mi
7:55 pm60 °FOvercast.7 mph72%30.01 "Hg10 mi
7:37 pm61 °FPartly sunny.9 mph70%30.01 "Hg10 mi
6:55 pm61 °FScattered clouds.8 mph70%30.00 "Hg10 mi
5:55 pm62 °FPassing clouds.9 mph67%30.00 "Hg10 mi
4:55 pm63 °FPassing clouds.10 mph70%30.00 "Hg10 mi
4:41 pm63 °FScattered clouds.9 mph70%30.00 "Hg10 mi
3:55 pm64 °FOvercast.9 mph68%29.99 "Hg10 mi
3:22 pm65 °FPartly sunny.9 mph66%30.00 "Hg10 mi
Weather by CustomWeather, © 2021

See weather overview